Airfield :
LOGIN :

Register | Disclaimer

   EN    FR    IT 

 










Legend :    VFR   Marginal VFR   IFR   Intensive IFR   Very Intensive IFR
Visi :
Ceiling :
>= 8 km
>= 3000ft
5 to 8 km
1000 to 3000 ft
1500m to 5 km
500 to 1000 ft
800 to 1500m
200 to 500 ft
< 800m
< 200 ft
Symbols :   Thunderstorms  Fog  Heavy snow  Heavy precipitations  Wind > 20 kt
SIGMETs :     Misc.  Thunderstorms  Icing  Turbulence  Mountain Waves  Volcanic Ashes






- Airport Elevation : 2096 ft
- IATA code : AUR


LFLW - Aurillac

CURRENT METAR :
  • 110230Z AUTO 13004KT 9999 ////// 01/M02 Q1018

EXPIRED METARs :
  • 110200Z AUTO 11005KT 9999 ////// 01/M02 Q1019
  • 110130Z AUTO 10005KT 9999 ////// 01/M01 Q1019
  • 110100Z AUTO 11005KT 9999 ////// 01/M02 Q1019
  • 110030Z AUTO 11004KT 9999 ////// 01/M02 Q1020
  • 110000Z AUTO 13004KT 9999 ////// M00/M02 Q1020
  • 102330Z AUTO 11003KT 9999 ////// M00/M02 Q1020

Expired Forecast.



MET'MAP, your aeronautical weather chart ! - Copyright ORBIFLY December 2007 - Disclaimer

ORBIFLY MET'MAP TEAM :

Programming & Development : Alexandra Zaïnal
Concept & original design : Baudouin d'Aumeries
Assistance for programming : Marc-Olivier Méhu
Technical & hardware support : Manuel Goepfert

Contact : metmap@orbifly.com




SOURCES & CREDITS :

   NOAA